Time;durP1;ratioP1;P1;durP2;ratioP2;P2;SDS_P1;SDS_P2;PMS_P1;PMS_P2;Temp;Humidity;BMP_temperature;BMP_pressure;BME280_temperature;BME280_humidity;BME280_pressure;Samples;Min_cycle;Max_cycle;Signal;HPM_P1;HPM_P2
2023/03/09 00:01:21;;;;;;;18.13;16.25;;;;;;;-0.05;100.00;99100.84;5069371;28;20141;-35
2023/03/09 00:03:47;;;;;;;17.98;16.08;;;;;;;-0.10;100.00;99074.91;5069634;28;20025;-35
2023/03/09 00:06:12;;;;;;;17.92;16.05;;;;;;;-0.06;100.00;99085.91;5070477;28;20029;-35
2023/03/09 00:08:38;;;;;;;17.20;15.40;;;;;;;-0.10;100.00;99060.78;5069836;28;20025;-35
2023/03/09 00:11:05;;;;;;;17.37;15.57;;;;;;;-0.09;100.00;99038.53;5069564;28;20457;-35
2023/03/09 00:13:30;;;;;;;18.17;15.77;;;;;;;0.00;100.00;99071.84;5059739;28;20033;-36
2023/03/09 00:15:56;;;;;;;17.17;15.43;;;;;;;-0.06;100.00;99076.09;5056337;28;20025;-35
2023/03/09 00:18:22;;;;;;;18.77;16.73;;;;;;;0.02;100.00;99087.56;5056303;28;20263;-35
2023/03/09 00:20:47;;;;;;;;;;;;;;;0.02;100.00;99085.72;5056590;28;20025;-35
2023/03/09 00:23:13;;;;;;;17.48;15.18;;;;;;;0.02;100.00;99079.59;5056089;28;19916;-35
2023/03/09 00:25:39;;;;;;;16.38;14.68;;;;;;;0.06;100.00;99096.78;5056145;28;20064;-35
2023/03/09 00:28:05;;;;;;;17.73;14.98;;;;;;;0.03;100.00;99103.28;5056082;28;20461;-35
2023/03/09 00:30:30;;;;;;;18.13;16.17;;;;;;;-0.04;100.00;99089.22;5056607;28;20373;-35
2023/03/09 00:32:56;;;;;;;18.93;16.93;;;;;;;0.03;100.00;99121.91;5055606;28;20108;-36
2023/03/09 00:35:21;;;;;;;18.50;16.58;;;;;;;-0.04;100.00;99102.50;5056183;28;20024;-35
2023/03/09 00:37:47;;;;;;;19.13;17.03;;;;;;;0.09;100.00;99120.25;5055826;28;20033;-35
2023/03/09 00:40:14;;;;;;;19.33;17.27;;;;;;;0.05;100.00;99125.19;5056471;28;20075;-35
2023/03/09 00:42:44;;;;;;;18.88;16.83;;;;;;;-0.11;100.00;99105.13;5055357;28;20468;-35
2023/03/09 00:45:11;;;;;;;24.88;17.20;;;;;;;0.06;100.00;99128.66;5056306;28;20029;-35
2023/03/09 00:47:37;;;;;;;18.75;16.70;;;;;;;0.07;100.00;99128.44;5055917;28;20029;-35
2023/03/09 00:50:04;;;;;;;20.23;17.85;;;;;;;0.06;100.00;99142.75;5055418;28;20029;-36
2023/03/09 00:52:30;;;;;;;18.20;16.20;;;;;;;0.05;100.00;99132.31;5055268;28;20048;-35
2023/03/09 00:54:55;;;;;;;18.85;16.85;;;;;;;0.08;100.00;99147.88;5056389;28;20029;-35
2023/03/09 00:57:21;;;;;;;18.58;16.58;;;;;;;0.06;100.00;99144.59;5055506;28;20028;-35
2023/03/09 00:59:47;;;;;;;18.42;16.50;;;;;;;0.14;100.00;99150.50;5055439;28;20061;-35
2023/03/09 01:02:12;;;;;;;18.47;16.47;;;;;;;0.09;100.00;99152.97;5055754;28;20045;-35
2023/03/09 01:04:38;;;;;;;19.33;17.02;;;;;;;0.09;100.00;99160.94;5055909;28;20040;-35
2023/03/09 01:07:03;;;;;;;17.90;16.07;;;;;;;0.07;100.00;99154.22;5055330;28;20041;-35
2023/03/09 01:09:29;;;;;;;18.98;16.98;;;;;;;0.00;100.00;99167.50;5055590;28;20108;-35
2023/03/09 01:11:54;;;;;;;19.23;17.17;;;;;;;0.06;100.00;99182.63;5056070;28;20104;-35
2023/03/09 01:14:19;;;;;;;18.10;16.13;;;;;;;0.06;100.00;99185.28;5055528;28;20459;-35
2023/03/09 01:16:45;;;;;;;18.67;16.67;;;;;;;0.03;100.00;99180.38;5055204;28;20158;-34
2023/03/09 01:19:10;;;;;;;18.03;16.13;;;;;;;0.03;100.00;99185.69;5054865;28;20021;-34
2023/03/09 01:21:35;;;;;;;18.83;16.83;;;;;;;0.06;100.00;99195.91;5054976;28;20075;-35
2023/03/09 01:24:01;;;;;;;18.63;16.67;;;;;;;0.05;100.00;99186.31;5054549;28;20025;-35
2023/03/09 01:26:26;;;;;;;18.03;16.13;;;;;;;0.12;100.00;99192.44;5055106;28;20355;-36
2023/03/09 01:28:51;;;;;;;16.97;15.17;;;;;;;0.10;100.00;99173.25;5054685;28;20102;-35
2023/03/09 01:31:17;;;;;;;18.03;16.13;;;;;;;0.07;100.00;99184.25;5055183;28;20037;-35
2023/03/09 01:33:43;;;;;;;16.57;14.80;;;;;;;0.17;100.00;99205.13;5054782;28;20116;-35
2023/03/09 01:36:12;;;;;;;18.25;15.73;;;;;;;0.20;100.00;99218.03;5054800;28;20355;-36
2023/03/09 01:38:38;;;;;;;18.15;16.17;;;;;;;0.22;100.00;99227.41;5054953;28;20029;-35
2023/03/09 01:41:04;;;;;;;18.73;16.73;;;;;;;0.21;100.00;99230.28;5054919;28;20484;-35
2023/03/09 01:43:40;;;;;;;17.15;14.95;;;;;;;0.23;100.00;99222.91;5055086;28;20440;-35
2023/03/09 01:46:24;;;;;;;17.52;15.48;;;;;;;0.29;100.00;99226.59;5055140;28;20461;-35
2023/03/09 01:48:55;;;;;;;17.83;15.93;;;;;;;0.11;100.00;99204.09;5054517;28;20021;-35
2023/03/09 01:51:24;;;;;;;17.35;15.55;;;;;;;0.29;100.00;99218.63;5055253;28;20029;-35
2023/03/09 01:53:52;;;;;;;19.00;16.27;;;;;;;0.23;100.00;99221.06;5054386;28;20405;-37
2023/03/09 01:56:20;;;;;;;17.08;14.10;;;;;;;0.34;100.00;99226.81;5054347;28;20032;-35
2023/03/09 01:58:48;;;;;;;18.25;16.27;;;;;;;0.22;100.00;99243.38;5054001;28;20025;-36
2023/03/09 02:01:15;;;;;;;19.75;16.88;;;;;;;0.32;100.00;99245.63;5054192;28;20045;-35
2023/03/09 02:03:44;;;;;;;19.17;16.25;;;;;;;0.33;100.00;99243.78;5054251;28;20041;-36
2023/03/09 02:06:14;;;;;;;18.30;16.33;;;;;;;0.34;100.00;99254.25;5054816;28;20112;-35
2023/03/09 02:08:48;;;;;;;18.98;16.55;;;;;;;0.30;100.00;99249.53;5054711;28;20017;-36
2023/03/09 02:11:14;;;;;;;18.92;16.92;;;;;;;0.37;100.00;99251.16;5054713;28;20068;-36
2023/03/09 02:13:48;;;;;;;18.10;16.20;;;;;;;0.41;100.00;99265.69;5054093;28;20029;-36
2023/03/09 02:16:13;;;;;;;17.45;15.27;;;;;;;0.48;100.00;99252.38;5054898;28;20357;-36
2023/03/09 02:18:39;;;;;;;20.58;16.98;;;;;;;0.50;100.00;99261.00;5054007;28;20033;-34
2023/03/09 02:21:30;;;;;;;18.15;16.25;;;;;;;0.55;100.00;99255.06;5054184;28;20083;-34
2023/03/09 02:24:18;;;;;;;19.73;17.63;;;;;;;0.56;100.00;99268.16;5054221;28;20036;-34
2023/03/09 02:26:59;;;;;;;19.02;15.98;;;;;;;0.48;100.00;99255.03;5053935;28;20024;-35
2023/03/09 02:29:25;;;;;;;20.30;16.90;;;;;;;0.51;100.00;99292.69;5053374;28;20033;-35
2023/03/09 02:31:51;;;;;;;;;;;;;;;0.58;100.00;99295.34;5054518;28;20029;-35
2023/03/09 02:34:16;;;;;;;18.38;16.30;;;;;;;0.57;100.00;99293.72;5053760;28;20250;-35
2023/03/09 02:36:41;;;;;;;18.77;16.77;;;;;;;0.45;100.00;99277.56;5053839;28;20021;-35
2023/03/09 02:39:25;;;;;;;21.67;19.03;;;;;;;0.50;100.00;99279.59;5053951;28;20029;-35
2023/03/09 02:41:54;;;;;;;20.48;18.30;;;;;;;0.33;100.00;99251.75;5054163;28;20029;-35
2023/03/09 02:44:20;;;;;;;20.15;18.02;;;;;;;0.41;100.00;99280.81;5053842;28;20029;-35
2023/03/09 02:46:45;;;;;;;20.20;18.08;;;;;;;0.48;100.00;99289.63;5054178;28;20465;-35
2023/03/09 02:49:11;;;;;;;20.70;18.50;;;;;;;0.49;100.00;99293.94;5053562;28;20381;-35
2023/03/09 02:51:36;;;;;;;22.00;19.03;;;;;;;0.46;100.00;99300.47;5053307;28;20502;-35
2023/03/09 02:54:01;;;;;;;21.97;19.57;;;;;;;0.47;100.00;99295.97;5053181;28;20029;-35
2023/03/09 02:56:27;;;;;;;23.50;20.00;;;;;;;0.45;100.00;99295.34;5053272;28;20059;-35
2023/03/09 02:58:52;;;;;;;21.77;19.00;;;;;;;0.43;100.00;99295.53;5053478;28;20029;-36
2023/03/09 03:01:17;;;;;;;23.23;19.53;;;;;;;0.37;100.00;99280.41;5053780;28;20057;-35
2023/03/09 03:03:43;;;;;;;22.57;20.03;;;;;;;0.47;100.00;99303.94;5054000;28;20677;-35
2023/03/09 03:06:08;;;;;;;21.57;19.20;;;;;;;0.36;100.00;99284.09;5054287;28;20029;-36
2023/03/09 03:08:35;;;;;;;24.27;21.67;;;;;;;0.41;100.00;99302.09;5053651;28;20021;-35
2023/03/09 03:11:00;;;;;;;21.30;19.00;;;;;;;0.53;100.00;99300.47;5053131;28;20040;-35
2023/03/09 03:13:26;;;;;;;23.13;19.67;;;;;;;0.52;100.00;99296.16;5053594;28;20404;-35
2023/03/09 03:15:57;;;;;;;25.43;21.73;;;;;;;0.42;100.00;99290.44;5053422;28;20052;-34
2023/03/09 03:18:23;;;;;;;23.60;20.55;;;;;;;0.28;100.00;99289.59;5053543;28;20036;-36
2023/03/09 03:20:48;;;;;;;22.57;19.70;;;;;;;0.37;100.00;99301.69;5054027;28;20441;-35
2023/03/09 03:23:14;;;;;;;23.00;20.33;;;;;;;0.35;100.00;99309.06;5053486;28;20029;-35
2023/03/09 03:25:39;;;;;;;25.97;21.63;;;;;;;0.33;100.00;99315.56;5054072;28;20029;-37
2023/03/09 03:28:04;;;;;;;27.20;23.53;;;;;;;0.20;100.00;99303.09;5053152;28;20029;-36
2023/03/09 03:30:30;;;;;;;25.33;20.63;;;;;;;0.27;100.00;99311.88;5053786;28;20025;-35
2023/03/09 03:32:55;;;;;;;24.83;21.60;;;;;;;0.29;100.00;99325.78;5053181;28;20385;-35
2023/03/09 03:35:21;;;;;;;23.97;20.77;;;;;;;0.31;100.00;99336.25;5053409;28;20021;-36
2023/03/09 03:37:46;;;;;;;27.88;22.23;;;;;;;0.29;100.00;99343.59;5053641;28;20409;-35
2023/03/09 03:40:12;;;;;;;26.77;21.53;;;;;;;0.29;100.00;99346.25;5053177;28;20103;-35
2023/03/09 03:42:37;;;;;;;25.63;22.58;;;;;;;0.17;100.00;99322.91;5053003;28;20032;-35
2023/03/09 03:45:03;;;;;;;26.23;21.17;;;;;;;0.27;100.00;99327.84;5052771;28;20073;-35
2023/03/09 03:47:29;;;;;;;27.13;22.17;;;;;;;0.31;100.00;99344.22;5053779;28;20016;-36
2023/03/09 03:49:54;;;;;;;24.97;20.57;;;;;;;0.45;100.00;99364.50;5057125;28;20108;-36
2023/03/09 03:52:19;;;;;;;25.97;21.53;;;;;;;0.48;100.00;99366.75;5056538;28;20539;-35
2023/03/09 03:54:44;;;;;;;27.17;22.33;;;;;;;0.48;100.00;99359.59;5057031;28;20041;-35
2023/03/09 03:57:10;;;;;;;28.03;22.57;;;;;;;0.42;100.00;99367.56;5056753;28;20035;-35
2023/03/09 03:59:35;;;;;;;27.00;22.27;;;;;;;0.29;100.00;99362.19;5057006;28;20029;-35
2023/03/09 04:02:00;;;;;;;27.70;19.97;;;;;;;0.49;100.00;99371.06;5056390;28;20052;-35
2023/03/09 04:04:26;;;;;;;27.93;22.17;;;;;;;0.34;100.00;99343.78;5056918;28;20032;-35
2023/03/09 04:06:51;;;;;;;26.23;21.77;;;;;;;0.53;100.00;99377.59;5056249;28;20053;-35
2023/03/09 04:09:17;;;;;;;28.80;23.80;;;;;;;0.48;100.00;99388.03;5056549;28;20116;-35
2023/03/09 04:11:42;;;;;;;28.70;23.23;;;;;;;0.50;100.00;99392.13;5057268;28;20056;-35
2023/03/09 04:14:07;;;;;;;28.07;21.27;;;;;;;0.51;100.00;99380.47;5056364;28;20025;-35
2023/03/09 04:16:33;;;;;;;24.60;20.47;;;;;;;0.62;100.00;99408.31;5056374;28;20051;-35
2023/03/09 04:18:58;;;;;;;27.03;22.97;;;;;;;0.58;100.00;99415.06;5056208;28;20025;-35
2023/03/09 04:21:23;;;;;;;26.50;22.00;;;;;;;0.60;100.00;99417.53;5056749;28;20033;-36
2023/03/09 04:23:49;;;;;;;31.53;24.63;;;;;;;0.53;100.00;99406.84;5056725;28;20029;-35
2023/03/09 04:26:14;;;;;;;31.08;24.63;;;;;;;0.47;100.00;99410.31;5056459;28;20025;-35
2023/03/09 04:28:40;;;;;;;28.47;23.00;;;;;;;0.51;100.00;99419.56;5056045;28;20043;-35
2023/03/09 04:31:05;;;;;;;28.33;23.03;;;;;;;0.43;100.00;99415.22;5056623;28;20256;-36
2023/03/09 04:33:30;;;;;;;30.53;25.00;;;;;;;0.42;100.00;99416.25;5054784;28;20516;-35
2023/03/09 04:35:56;;;;;;;34.77;25.83;;;;;;;0.39;100.00;99405.19;5056264;28;20108;-35
2023/03/09 04:38:21;;;;;;;32.13;25.37;;;;;;;0.42;100.00;99407.44;5055589;28;20032;-36
2023/03/09 04:40:46;;;;;;;34.67;26.83;;;;;;;0.34;100.00;99415.59;5054414;28;20068;-36
2023/03/09 04:43:12;;;;;;;35.40;26.93;;;;;;;0.35;100.00;99407.44;5056366;28;20025;-36
2023/03/09 04:45:37;;;;;;;34.27;25.17;;;;;;;0.33;100.00;99414.78;5055879;28;20033;-35
2023/03/09 04:48:03;;;;;;;37.17;28.53;;;;;;;0.25;100.00;99407.81;5055736;28;20443;-35
2023/03/09 04:50:28;;;;;;;35.85;26.20;;;;;;;0.39;100.00;99437.09;5056023;28;20090;-35
2023/03/09 04:52:55;;;;;;;34.10;26.63;;;;;;;0.40;100.00;99441.41;5055359;28;20036;-35
2023/03/09 04:55:21;;;;;;;33.95;26.67;;;;;;;0.28;100.00;99437.66;5055575;28;20266;-35
2023/03/09 04:57:46;;;;;;;34.03;26.23;;;;;;;0.36;100.00;99453.47;5055582;28;20033;-35
2023/03/09 05:00:12;;;;;;;36.93;27.60;;;;;;;0.35;100.00;99446.50;5055731;28;20056;-35
2023/03/09 05:02:38;;;;;;;35.95;27.25;;;;;;;0.48;100.00;99463.31;5056575;28;20077;-35
2023/03/09 05:05:05;;;;;;;34.55;26.70;;;;;;;0.47;100.00;99460.88;5055016;28;20484;-35
2023/03/09 05:07:31;;;;;;;37.15;29.45;;;;;;;0.37;100.00;99449.78;5055180;28;20021;-35
2023/03/09 05:09:56;;;;;;;37.45;28.35;;;;;;;0.37;100.00;99460.41;5055279;28;20025;-35
2023/03/09 05:12:21;;;;;;;39.20;27.10;;;;;;;0.41;100.00;99477.63;5054818;28;20029;-35
2023/03/09 05:14:47;;;;;;;35.43;26.40;;;;;;;0.40;100.00;99471.47;5054854;28;20025;-35
2023/03/09 05:17:12;;;;;;;35.87;27.20;;;;;;;0.36;100.00;99472.06;5054874;28;20033;-35
2023/03/09 05:19:38;;;;;;;36.77;27.60;;;;;;;0.25;100.00;99460.16;5055710;28;20029;-35
2023/03/09 05:22:04;;;;;;;35.40;27.80;;;;;;;0.18;100.00;99464.63;5055314;28;20029;-36
2023/03/09 05:24:29;;;;;;;35.85;27.15;;;;;;;0.30;100.00;99470.22;5055303;28;20121;-35
2023/03/09 05:26:55;;;;;;;33.57;25.77;;;;;;;0.15;100.00;99460.53;5054964;28;20509;-35
2023/03/09 05:29:20;;;;;;;36.33;26.87;;;;;;;0.21;100.00;99466.91;5055756;28;20054;-36
2023/03/09 05:31:46;;;;;;;38.78;28.00;;;;;;;0.28;100.00;99477.56;5054198;28;20037;-35
2023/03/09 05:34:11;;;;;;;34.58;26.45;;;;;;;0.26;100.00;99480.41;5055143;28;20032;-35
2023/03/09 05:36:37;;;;;;;32.83;24.93;;;;;;;0.39;100.00;99483.16;5054517;28;20511;-35
2023/03/09 05:39:03;;;;;;;37.33;25.87;;;;;;;0.42;100.00;99477.41;5054516;28;20025;-35
2023/03/09 05:41:28;;;;;;;30.83;23.65;;;;;;;0.54;100.00;99469.69;5054330;28;20355;-35
2023/03/09 05:43:54;;;;;;;31.83;25.20;;;;;;;0.56;100.00;99472.97;5054570;28;20126;-34
2023/03/09 05:46:19;;;;;;;32.27;23.60;;;;;;;0.58;100.00;99468.25;5054917;28;20017;-35
2023/03/09 05:48:47;;;;;;;31.90;25.30;;;;;;;0.45;100.00;99462.91;5054881;28;20110;-35
2023/03/09 05:51:12;;;;;;;31.48;23.67;;;;;;;0.56;100.00;99472.97;5054236;28;20025;-36
2023/03/09 05:53:38;;;;;;;30.60;23.67;;;;;;;0.52;100.00;99474.38;5055075;28;20028;-35
2023/03/09 05:56:06;;;;;;;35.23;24.63;;;;;;;0.50;100.00;99482.56;5054731;28;20021;-35
2023/03/09 05:58:31;;;;;;;34.40;26.02;;;;;;;0.31;100.00;99464.69;5054049;28;20279;-35
2023/03/09 06:00:57;;;;;;;33.40;25.50;;;;;;;0.49;100.00;99502.22;5054095;28;20041;-35
2023/03/09 06:03:24;;;;;;;31.83;24.17;;;;;;;0.54;100.00;99519.41;5054615;28;20032;-36
2023/03/09 06:05:58;;;;;;;27.38;20.27;;;;;;;0.63;100.00;99519.03;5054231;28;20036;-35
2023/03/09 06:08:23;;;;;;;33.05;25.35;;;;;;;0.55;100.00;99513.91;5054535;28;20074;-35
2023/03/09 06:10:48;;;;;;;29.23;22.87;;;;;;;0.59;100.00;99514.31;5054047;28;20037;-36
2023/03/09 06:13:14;;;;;;;27.97;20.63;;;;;;;0.47;100.00;99477.63;5054460;28;20066;-35
2023/03/09 06:15:39;;;;;;;31.50;22.77;;;;;;;0.61;100.00;99499.78;5054969;28;20040;-36
2023/03/09 06:18:04;;;;;;;32.20;24.37;;;;;;;0.60;100.00;99513.31;5054587;28;20025;-36
2023/03/09 06:20:30;;;;;;;27.50;20.73;;;;;;;0.69;100.00;99523.56;5054917;28;20029;-36
2023/03/09 06:22:55;;;;;;;27.80;20.30;;;;;;;0.75;100.00;99530.75;5054031;28;20350;-36
2023/03/09 06:25:20;;;;;;;30.53;23.13;;;;;;;0.75;100.00;99530.75;5054793;28;20148;-35
2023/03/09 06:27:46;;;;;;;31.37;24.30;;;;;;;0.66;100.00;99534.59;5054089;28;20476;-35
2023/03/09 06:30:12;;;;;;;30.97;22.83;;;;;;;0.68;100.00;99537.06;5053859;28;20389;-35
2023/03/09 06:32:37;;;;;;;31.02;23.45;;;;;;;0.60;100.00;99554.03;5053798;28;20021;-35
2023/03/09 06:35:03;;;;;;;32.93;25.13;;;;;;;0.57;100.00;99564.22;5053395;28;20519;-35
2023/03/09 06:37:28;;;;;;;30.23;22.05;;;;;;;0.66;100.00;99560.38;5054009;28;20032;-36
2023/03/09 06:39:53;;;;;;;32.90;22.87;;;;;;;0.69;100.00;99566.16;5053463;28;20111;-35
2023/03/09 06:42:19;;;;;;;28.20;22.47;;;;;;;0.72;100.00;99571.06;5053361;28;20071;-35
2023/03/09 06:44:44;;;;;;;29.80;22.63;;;;;;;0.70;100.00;99574.94;5053929;28;20520;-36
2023/03/09 06:47:11;;;;;;;30.88;22.02;;;;;;;0.72;100.00;99567.56;5053598;28;20381;-36
2023/03/09 06:49:36;;;;;;;29.17;22.00;;;;;;;0.65;100.00;99554.25;5053834;28;20029;-36
2023/03/09 06:52:03;;;;;;;28.57;21.93;;;;;;;0.71;100.00;99568.59;5053541;28;20029;-36
2023/03/09 06:54:28;;;;;;;32.35;23.48;;;;;;;0.60;100.00;99561.19;5053527;28;20515;-36
2023/03/09 06:56:53;;;;;;;29.60;22.40;;;;;;;0.48;100.00;99568.88;5053490;28;20048;-36
2023/03/09 06:59:19;;;;;;;27.07;20.73;;;;;;;0.58;100.00;99587.97;5053194;28;20029;-36
2023/03/09 07:01:45;;;;;;;33.60;23.27;;;;;;;0.64;100.00;99599.69;5053528;28;20295;-36
2023/03/09 07:04:10;;;;;;;29.58;22.85;;;;;;;0.63;100.00;99619.31;5053451;28;20532;-36
2023/03/09 07:06:35;;;;;;;30.73;22.37;;;;;;;0.64;100.00;99618.31;5053484;28;20033;-37
2023/03/09 07:09:01;;;;;;;32.50;23.57;;;;;;;0.41;100.00;99590.13;5053997;28;20029;-36
2023/03/09 07:11:26;;;;;;;30.77;22.60;;;;;;;0.64;100.00;99621.78;5053082;28;20033;-36
2023/03/09 07:13:51;;;;;;;29.80;21.97;;;;;;;0.61;100.00;99637.31;5053726;28;20409;-36
2023/03/09 07:16:17;;;;;;;31.17;22.20;;;;;;;0.69;100.00;99650.47;5053575;28;20025;-36
2023/03/09 07:18:42;;;;;;;30.30;21.17;;;;;;;0.77;100.00;99658.28;5053517;28;20021;-36
2023/03/09 07:21:09;;;;;;;29.00;22.40;;;;;;;0.82;100.00;99671.81;5053187;28;20427;-35
2023/03/09 07:23:34;;;;;;;;;;;;;;;0.92;100.00;99674.94;5055955;28;20802;-36
2023/03/09 07:26:01;;;;;;;28.60;22.08;;;;;;;0.77;100.00;99669.75;5058073;28;19956;-35
2023/03/09 07:28:26;;;;;;;31.35;23.63;;;;;;;0.78;100.00;99681.19;5057214;28;20033;-35
2023/03/09 07:30:52;;;;;;;30.08;23.13;;;;;;;0.74;100.00;99672.00;5057261;28;20037;-36
2023/03/09 07:33:17;;;;;;;29.13;22.47;;;;;;;0.78;100.00;99665.25;5057190;28;20024;-36
2023/03/09 07:35:43;;;;;;;28.08;21.63;;;;;;;0.76;100.00;99675.28;5056792;28;20159;-36
2023/03/09 07:38:08;;;;;;;30.07;22.30;;;;;;;0.79;100.00;99688.19;5057026;28;20053;-35
2023/03/09 07:40:34;;;;;;;29.77;21.37;;;;;;;0.88;100.00;99697.66;5057515;28;20451;-35
2023/03/09 07:42:59;;;;;;;27.92;20.85;;;;;;;0.91;100.00;99693.78;5056677;28;20532;-36
2023/03/09 07:45:24;;;;;;;29.33;22.10;;;;;;;0.81;100.00;99698.63;5057519;28;20028;-36
2023/03/09 07:47:50;;;;;;;28.37;20.97;;;;;;;0.91;100.00;99691.94;5057234;28;20104;-36
2023/03/09 07:50:16;;;;;;;28.73;22.73;;;;;;;0.87;100.00;99689.84;5056963;28;20021;-36
2023/03/09 07:52:42;;;;;;;;;;;;;;;0.98;100.00;99679.50;5057164;28;20279;-36
2023/03/09 07:55:09;;;;;;;32.10;21.70;;;;;;;1.01;100.00;99678.28;5057323;28;19916;-36
2023/03/09 07:57:35;;;;;;;29.10;20.80;;;;;;;1.03;100.00;99686.91;5057159;28;20496;-36
2023/03/09 08:00:05;;;;;;;30.75;23.10;;;;;;;0.94;100.00;99702.19;5056956;28;20025;-36
2023/03/09 08:02:31;;;;;;;26.02;18.55;;;;;;;1.09;100.00;99710.06;5056097;28;20386;-35
2023/03/09 08:04:56;;;;;;;30.90;22.85;;;;;;;0.90;100.00;99679.66;5056906;28;20064;-36
2023/03/09 08:07:22;;;;;;;32.53;22.77;;;;;;;1.11;100.00;99707.19;5056562;28;20377;-36
2023/03/09 08:09:47;;;;;;;30.33;21.93;;;;;;;1.13;100.00;99713.97;5056509;28;20419;-36
2023/03/09 08:12:13;;;;;;;33.57;24.37;;;;;;;1.01;100.00;99723.53;5056434;28;20087;-36
2023/03/09 08:14:38;;;;;;;32.40;24.87;;;;;;;0.96;100.00;99718.78;5056138;28;20044;-36
2023/03/09 08:17:03;;;;;;;28.27;21.40;;;;;;;1.07;100.00;99736.03;5056299;28;20025;-35
2023/03/09 08:19:30;;;;;;;26.90;20.17;;;;;;;1.23;100.00;99749.06;5056568;28;20104;-35
2023/03/09 08:21:56;;;;;;;32.25;23.77;;;;;;;1.21;100.00;99747.59;5056662;28;20341;-36
2023/03/09 08:24:21;;;;;;;31.25;21.95;;;;;;;1.29;100.00;99726.97;5055927;28;20032;-35
2023/03/09 08:26:46;;;;;;;30.40;21.67;;;;;;;1.39;100.00;99728.44;5056680;28;20036;-35
2023/03/09 08:29:12;;;;;;;29.43;22.27;;;;;;;1.35;100.00;99727.19;5056422;28;20029;-35
2023/03/09 08:31:37;;;;;;;31.00;23.77;;;;;;;1.35;100.00;99743.16;5056294;28;20032;-35
2023/03/09 08:34:04;;;;;;;31.55;24.25;;;;;;;1.37;100.00;99746.47;5055304;28;20024;-35
2023/03/09 08:36:29;;;;;;;30.55;22.65;;;;;;;1.42;100.00;99741.38;5056493;28;20544;-35
2023/03/09 08:38:55;;;;;;;31.33;23.20;;;;;;;1.38;100.00;99753.44;5056237;28;20116;-35
2023/03/09 08:41:21;;;;;;;33.45;25.33;;;;;;;1.27;100.00;99760.97;5056646;28;20508;-35
2023/03/09 08:43:47;;;;;;;33.75;23.85;;;;;;;1.39;100.00;99766.53;5055586;28;20075;-35
2023/03/09 08:46:13;;;;;;;32.20;23.77;;;;;;;1.46;100.00;99761.25;5056390;28;20103;-37
2023/03/09 08:48:39;;;;;;;34.00;24.13;;;;;;;1.52;100.00;99763.13;5055487;28;20064;-35
2023/03/09 08:51:07;;;;;;;30.95;23.85;;;;;;;1.46;100.00;99754.06;5055473;28;20033;-36
2023/03/09 08:53:33;;;;;;;30.40;23.23;;;;;;;1.61;100.00;99761.09;5056096;28;20029;-35
2023/03/09 08:56:06;;;;;;;31.80;24.25;;;;;;;1.66;100.00;99770.16;5055613;28;20465;-35
2023/03/09 08:58:32;;;;;;;34.42;24.13;;;;;;;1.73;100.00;99755.00;5056103;28;20057;-36
2023/03/09 09:00:59;;;;;;;30.55;22.35;;;;;;;1.82;100.00;99761.00;5055106;28;20216;-36
2023/03/09 09:03:25;;;;;;;32.90;24.15;;;;;;;1.85;100.00;99763.22;5055772;28;20376;-36
2023/03/09 09:05:50;;;;;;;34.73;24.97;;;;;;;1.87;100.00;99787.03;5055285;28;20029;-36
2023/03/09 09:08:16;;;;;;;28.03;21.80;;;;;;;1.93;100.00;99791.56;5055058;28;20029;-36
2023/03/09 09:10:45;;;;;;;29.17;22.10;;;;;;;1.87;100.00;99776.38;5055748;28;20025;-36
2023/03/09 09:13:11;;;;;;;29.40;23.23;;;;;;;1.95;100.00;99793.03;5055310;28;20036;-36
2023/03/09 09:15:38;;;;;;;32.65;23.30;;;;;;;1.98;100.00;99797.13;5055772;28;20361;-36
2023/03/09 09:18:04;;;;;;;30.38;22.65;;;;;;;2.09;100.00;99817.03;5055161;28;20417;-36
2023/03/09 09:20:29;;;;;;;33.43;25.37;;;;;;;2.05;100.00;99813.97;5055738;28;20084;-36
2023/03/09 09:22:54;;;;;;;29.27;22.35;;;;;;;2.02;100.00;99822.38;5054721;28;20481;-36
2023/03/09 09:25:20;;;;;;;27.47;21.10;;;;;;;2.02;100.00;99822.38;5055397;28;20071;-36
2023/03/09 09:27:49;;;;;;;28.93;20.57;;;;;;;2.00;100.00;99813.72;5055060;28;20492;-36
2023/03/09 09:30:14;;;;;;;29.48;21.60;;;;;;;2.09;100.00;99807.19;5055511;28;20024;-37
2023/03/09 09:32:40;;;;;;;32.37;22.97;;;;;;;2.11;100.00;99805.16;5055754;28;20051;-36
2023/03/09 09:35:05;;;;;;;33.85;25.52;;;;;;;2.09;100.00;99807.19;5055477;28;20342;-36
2023/03/09 09:37:31;;;;;;;32.55;24.20;;;;;;;2.16;100.00;99805.38;5054540;28;20029;-36
2023/03/09 09:39:58;;;;;;;33.00;23.55;;;;;;;2.08;100.00;99788.75;5053643;28;20039;-36
2023/03/09 09:42:29;;;;;;;30.65;21.73;;;;;;;2.26;100.00;99799.66;5054305;28;20416;-35
2023/03/09 09:44:57;;;;;;;30.13;22.02;;;;;;;2.25;100.00;99798.03;5054195;28;20075;-35
2023/03/09 09:47:29;;;;;;;31.08;23.73;;;;;;;2.24;100.00;99789.16;5054322;28;20060;-36
2023/03/09 09:49:57;;;;;;;31.80;22.75;;;;;;;2.41;100.00;99812.81;5055431;28;20033;-35
2023/03/09 09:52:29;;;;;;;36.75;24.42;;;;;;;2.40;100.00;99821.84;5054501;28;20029;-36
2023/03/09 09:55:03;;;;;;;33.78;23.55;;;;;;;2.41;100.00;99824.31;5055066;28;20052;-36
2023/03/09 09:57:42;;;;;;;32.63;23.80;;;;;;;2.30;100.00;99808.91;5054418;28;20039;-35
2023/03/09 10:00:15;;;;;;;33.38;23.45;;;;;;;2.44;100.00;99831.94;5054180;28;20033;-35
2023/03/09 10:03:00;;;;;;;29.83;23.10;;;;;;;2.49;100.00;99829.47;5054418;28;20053;-36
2023/03/09 10:05:57;;;;;;;31.67;23.27;;;;;;;2.43;100.00;99848.94;5054574;28;20119;-35
2023/03/09 10:08:46;;;;;;;31.97;23.93;;;;;;;2.36;100.00;99844.63;5045757;28;20033;-36
2023/03/09 10:11:23;;;;;;;30.55;23.13;;;;;;;2.37;100.00;99832.91;5054178;28;20280;-35
2023/03/09 10:13:55;;;;;;;30.70;22.85;;;;;;;2.38;100.00;99834.56;5054396;28;20021;-35
2023/03/09 10:16:32;;;;;;;31.38;22.95;;;;;;;2.41;100.00;99842.19;5054944;28;20090;-35
2023/03/09 10:19:07;;;;;;;32.88;23.83;;;;;;;2.47;100.00;99841.34;5054008;28;20064;-35
2023/03/09 10:21:42;;;;;;;34.28;23.92;;;;;;;2.50;100.00;99835.63;5053944;28;20021;-35
2023/03/09 10:24:21;;;;;;;32.20;23.02;;;;;;;2.49;100.00;99828.63;5054057;28;20031;-35
2023/03/09 10:27:11;;;;;;;30.77;23.42;;;;;;;2.58;100.00;99846.09;5053924;28;20021;-35
2023/03/09 10:30:05;;;;;;;35.35;24.85;;;;;;;2.61;100.00;99840.34;5054072;28;20024;-35
2023/03/09 10:32:39;;;;;;;29.63;22.67;;;;;;;2.52;100.00;99817.56;5054363;28;20059;-35
2023/03/09 10:35:20;;;;;;;33.13;24.15;;;;;;;2.63;100.00;99821.47;5054632;28;20036;-35
2023/03/09 10:37:48;;;;;;;29.77;22.45;;;;;;;2.65;100.00;99817.56;5053967;28;20092;-36
2023/03/09 10:40:32;;;;;;;30.85;22.73;;;;;;;2.68;100.00;99819.81;5053964;28;20033;-35
2023/03/09 10:42:59;;;;;;;29.77;21.50;;;;;;;2.67;100.00;99815.50;5054151;28;20021;-36
2023/03/09 10:45:29;;;;;;;29.95;22.63;;;;;;;2.78;100.00;99827.41;5053641;28;20082;-35
2023/03/09 10:47:58;;;;;;;30.40;22.58;;;;;;;2.87;100.00;99836.06;5053552;28;20111;-35
2023/03/09 10:50:27;;;;;;;31.05;23.38;;;;;;;2.82;100.00;99825.97;5053547;28;20079;-36
2023/03/09 10:52:54;;;;;;;33.42;26.08;;;;;;;2.74;100.00;99820.88;5053218;28;20477;-35
2023/03/09 10:55:43;;;;;;;31.05;23.20;;;;;;;2.93;100.00;99841.41;5053797;28;20120;-36
2023/03/09 10:58:21;;;;;;;30.98;24.05;;;;;;;3.02;100.00;99842.81;5053294;28;20029;-38
2023/03/09 11:01:15;;;;;;;32.53;24.27;;;;;;;2.96;100.00;99842.84;5053349;28;20123;-36
2023/03/09 11:03:42;;;;;;;31.77;23.35;;;;;;;3.00;100.00;99844.91;5053230;28;20358;-35
2023/03/09 11:06:28;;;;;;;32.80;24.02;;;;;;;2.87;100.00;99814.69;5053711;28;20025;-36
2023/03/09 11:08:57;;;;;;;29.75;21.55;;;;;;;3.07;100.00;99832.38;5053105;28;20021;-36
2023/03/09 11:11:25;;;;;;;28.35;21.80;;;;;;;3.09;100.00;99821.47;5053110;28;20032;-35
2023/03/09 11:13:52;;;;;;;30.15;22.50;;;;;;;3.05;100.00;99813.03;5053349;28;20409;-35
2023/03/09 11:16:22;;;;;;;29.48;22.88;;;;;;;3.02;100.00;99829.47;5054139;28;20037;-35
2023/03/09 11:18:48;;;;;;;30.42;22.60;;;;;;;3.00;100.00;99820.03;5053649;28;20033;-35